Halley, Arkansas
Current Conditions -  °F | °C
As of 9:53 AM on Friday 24 Oct 2014 (Local Time) from KLLQ Reporting Station
Clear Clear  
Wind Chill: 60°   Ceiling: Unl
Heat Index: 60°   Visibility: 10mi
Dew Point: 49°   Wind: 3mph
Humidity: 67%   Direction: 330°NNW
Pressure: 30.18"   Gusts: NA
Location:  33.4898°N, 91.4556°W
Report Text: KLLQ 241453Z AUTO 33003KT 10SM CLR 16/09 A3018 RMK AO2 SLP221 T01560094 51011
Loading
Personal Weather Stations






























Interactive Weather Map
Tropical Storm Tracking
New forecast layout! Learn more

10-Day Weather Forecast

Advertisements
Track Severe Weather on mobile